Villanova D'Albenga International Airport LIMG

Flugplatz Daten

Name: Villanova D'Albenga International Airport

Ident: LIMG

Lat: 44,05059814

Long: 8,127429962

Platzhöhe: 148 ft

IataCode: ALL

City: Albenga

Metar

2021/12/03 16:50
LIMG 031650Z VRB02KT CAVOK 06/M07 Q1013

Taf

2021/12/03 12:21
TAF LIMG 030750Z 0312/0412 34020G30KT CAVOK
BECMG 0314/0316 33012KT
BECMG 0318/0320 VRB05KT
Gewünschte Webcam nicht vorhanden? Dann fügen Sie eine hinzu. Sie wird dann so schnell wie möglich freigeschaltet
Url: Title: